Nanyue, China
Current Conditions -  °F | °C
As of 9:00 AM on Thursday 23 Oct 2014 (Local Time) from ZGHA Reporting Station
Clear Clear  
Wind Chill: 64°   Ceiling: Unl
Heat Index: 64°   Visibility: 4mi
Dew Point: 54°   Wind: 4mph
Humidity: 68%   Direction: 40°NE
Pressure: 30.15"   Gusts: NA
Location:  27.3°N, 112.7°E
Report Text: ZGHA 230100Z 04002MPS 360V090 7000 NSC 18/12 Q1021 NOSIG
Loading
Personal Weather Stations






























Interactive Weather Map
Tropical Storm Tracking
New forecast layout! Learn more

10-Day Weather Forecast

Advertisements
Track Severe Weather on mobile